KPHN/PHN METAR and TAF weather

Enter ICAO airport designator
Station Type Date Time Source
KPHN METAR 2021/02/27 08:38 UTC NOAA

KPHN 270838Z AUTO 16005KT 7SM UP OVC019 00/M01 A2985 RMK AO2


Station Type Date Time Source
KPHN Decoded METAR 2021/02/27 08:38 UTC NOAA

St. Clair County International, MI, United States (KPHN) 42-55N 082-32W
Feb 27, 2021 - 03:38 AM EST / 2021.02.27 0838 UTC
Wind: from the SSE (160 degrees) at 6 MPH (5 KT):0
Visibility: 7 mile(s):0
Sky conditions: overcast
Weather: precipitation
Temperature: 32 F (0 C)
Windchill: 26 F (-3 C):1
Dew Point: 30 F (-1 C)
Relative Humidity: 92%
Pressure (altimeter): 29.85 in. Hg (1010 hPa)
ob: KPHN 270838Z AUTO 16005KT 7SM UP OVC019 00/M01 A2985 RMK AO2
cycle: 8

Station Type Date Time Source
KPHN TAF UTC NOAA

Error!

Example: see airport list